Time;durP1;ratioP1;P1;durP2;ratioP2;P2;SDS_P1;SDS_P2;PMS_P1;PMS_P2;Temp;Humidity;BMP_temperature;BMP_pressure;BME280_temperature;BME280_humidity;BME280_pressure;Samples;Min_cycle;Max_cycle;Signal;HPM_P1;HPM_P2
2023/01/02 00:00:08;;;;;;;15.90;11.38;;;1.50;99.90;;;;;;5052350;28;20032;-53
2023/01/02 00:02:34;;;;;;;16.25;10.32;;;1.40;99.90;;;;;;5053687;28;20025;-47
2023/01/02 00:05:00;;;;;;;16.10;10.73;;;1.40;99.90;;;;;;5052362;28;20551;-49
2023/01/02 00:07:25;;;;;;;16.52;11.65;;;1.40;99.90;;;;;;5053571;28;20062;-52
2023/01/02 00:09:51;;;;;;;17.25;11.48;;;1.30;99.90;;;;;;5053464;28;20410;-49
2023/01/02 00:12:16;;;;;;;20.83;12.25;;;1.30;99.90;;;;;;5064348;28;20027;-51
2023/01/02 00:14:42;;;;;;;15.82;11.68;;;1.30;99.90;;;;;;5073160;28;20036;-50
2023/01/02 00:17:08;;;;;;;17.42;11.77;;;1.30;99.90;;;;;;5073346;28;20086;-52
2023/01/02 00:19:33;;;;;;;17.17;12.07;;;1.30;99.90;;;;;;5073410;28;20089;-50
2023/01/02 00:21:59;;;;;;;16.48;11.70;;;1.30;99.90;;;;;;5073238;28;20044;-49
2023/01/02 00:24:25;;;;;;;18.92;11.65;;;1.30;99.90;;;;;;5073178;28;20623;-50
2023/01/02 00:26:50;;;;;;;15.88;11.98;;;1.20;99.90;;;;;;5073308;28;20452;-54
2023/01/02 00:29:16;;;;;;;17.73;11.73;;;1.20;99.90;;;;;;5059554;28;20087;-54
2023/01/02 00:31:41;;;;;;;19.08;12.85;;;1.20;99.90;;;;;;5053127;28;20032;-52
2023/01/02 00:34:07;;;;;;;17.50;11.50;;;1.20;99.90;;;;;;5053076;28;20025;-51
2023/01/02 00:36:33;;;;;;;16.42;11.15;;;1.20;99.90;;;;;;5052966;28;20436;-51
2023/01/02 00:38:58;;;;;;;23.80;12.30;;;1.30;99.90;;;;;;5052977;28;20032;-51
2023/01/02 00:41:24;;;;;;;21.15;12.95;;;1.30;99.90;;;;;;5051800;28;20025;-49
2023/01/02 00:43:50;;;;;;;18.98;13.75;;;1.30;99.90;;;;;;5064652;28;20483;-50
2023/01/02 00:46:17;;;;;;;17.88;12.38;;;1.20;99.90;;;;;;5072630;28;20028;-49
2023/01/02 00:48:43;;;;;;;19.42;11.88;;;1.30;99.90;;;;;;5072800;28;20024;-49
2023/01/02 00:51:09;;;;;;;23.42;12.55;;;1.20;99.90;;;;;;5071494;28;20407;-48
2023/01/02 00:53:35;;;;;;;24.67;13.05;;;1.10;99.90;;;;;;5072797;28;20435;-52
2023/01/02 00:56:00;;;;;;;21.90;13.60;;;1.10;99.90;;;;;;5072610;28;20584;-52
2023/01/02 00:58:26;;;;;;;17.83;11.23;;;1.00;99.90;;;;;;5061393;28;20112;-50
2023/01/02 01:00:52;;;;;;;24.55;12.48;;;1.00;99.90;;;;;;5052624;28;20033;-51
2023/01/02 01:03:18;;;;;;;21.60;13.98;;;0.90;99.90;;;;;;5066900;28;20033;-50
2023/01/02 01:05:43;;;;;;;24.52;13.93;;;1.00;99.90;;;;;;5072525;28;20697;-49
2023/01/02 01:08:09;;;;;;;19.48;12.52;;;1.00;99.90;;;;;;5072485;28;20110;-50
2023/01/02 01:10:36;;;;;;;19.67;12.63;;;0.90;99.90;;;;;;5071628;28;20052;-51
2023/01/02 01:13:03;;;;;;;18.95;10.88;;;0.90;99.90;;;;;;5072247;28;20028;-48
2023/01/02 01:15:29;;;;;;;17.90;12.73;;;0.90;99.90;;;;;;5072090;28;20043;-52
2023/01/02 01:17:54;;;;;;;15.85;12.27;;;0.90;99.90;;;;;;5072190;28;20020;-52
2023/01/02 01:20:20;;;;;;;18.10;12.52;;;0.90;99.90;;;;;;5072037;28;20027;-50
2023/01/02 01:22:46;;;;;;;22.05;13.18;;;0.90;99.90;;;;;;5072191;28;20112;-49
2023/01/02 01:25:11;;;;;;;20.20;12.80;;;0.90;99.90;;;;;;5072039;28;20039;-49
2023/01/02 01:27:37;;;;;;;19.63;12.70;;;0.90;99.90;;;;;;5052417;28;20040;-53
2023/01/02 01:30:04;;;;;;;21.40;13.35;;;0.90;99.90;;;;;;5052038;28;20488;-50
2023/01/02 01:32:30;;;;;;;20.88;13.07;;;0.90;99.90;;;;;;5052039;28;20059;-49
2023/01/02 01:34:56;;;;;;;22.05;13.60;;;0.80;99.90;;;;;;5051863;28;20025;-51
2023/01/02 01:37:21;;;;;;;18.35;12.23;;;0.80;99.90;;;;;;5051812;28;20032;-48
2023/01/02 01:39:47;;;;;;;23.80;12.70;;;0.80;99.90;;;;;;5051981;28;20104;-54
2023/01/02 01:42:14;;;;;;;21.10;12.52;;;0.80;99.90;;;;;;5069771;28;20020;-50
2023/01/02 01:44:48;;;;;;;24.23;13.35;;;0.80;99.90;;;;;;5071853;28;20028;-53
2023/01/02 01:47:31;;;;;;;19.48;11.57;;;0.80;99.90;;;;;;5071838;28;20601;-49
2023/01/02 01:50:19;;;;;;;15.98;11.55;;;0.80;99.90;;;;;;5071707;28;20025;-51
2023/01/02 01:52:56;;;;;;;22.02;13.35;;;0.80;99.90;;;;;;5071349;28;20024;-52
2023/01/02 01:55:25;;;;;;;18.98;12.63;;;0.80;99.90;;;;;;5066341;28;20049;-52
2023/01/02 01:57:56;;;;;;;25.02;12.98;;;0.80;99.90;;;;;;5050367;28;20025;-49
2023/01/02 02:00:21;;;;;;;19.23;12.57;;;0.80;99.90;;;;;;5051558;28;20025;-48
2023/01/02 02:02:52;;;;;;;22.52;14.10;;;0.70;99.90;;;;;;5051451;28;20563;-51
2023/01/02 02:05:22;;;;;;;24.85;13.40;;;0.70;99.90;;;;;;5051437;28;20461;-50
2023/01/02 02:08:26;;;;;;;18.38;12.13;;;0.70;99.90;;;;;;5051554;28;20040;-51
2023/01/02 02:10:53;;;;;;;23.35;13.93;;;0.70;99.90;;;;;;5061299;28;20056;-53
2023/01/02 02:13:19;;;;;;;26.75;14.05;;;0.70;99.90;;;;;;5071299;28;20027;-53
2023/01/02 02:15:58;;;;;;;23.30;14.02;;;0.70;99.90;;;;;;5069815;28;20028;-50
2023/01/02 02:19:01;;;;;;;21.98;12.75;;;0.70;99.90;;;;;;5071258;28;20649;-50
2023/01/02 02:21:41;;;;;;;20.67;13.70;;;0.70;99.90;;;;;;5071378;28;20021;-49
2023/01/02 02:24:28;;;;;;;24.70;14.55;;;0.70;99.90;;;;;;5071294;28;20023;-53
2023/01/02 02:27:10;;;;;;;17.45;12.00;;;0.70;99.90;;;;;;5071238;28;20028;-51
2023/01/02 02:30:09;;;;;;;24.50;14.70;;;0.70;99.90;;;;;;5055508;28;20036;-49
2023/01/02 02:32:59;;;;;;;36.00;14.40;;;0.70;99.90;;;;;;5051164;28;20032;-48
2023/01/02 02:35:37;;;;;;;21.42;12.95;;;0.60;99.90;;;;;;5051327;28;20423;-54
2023/01/02 02:38:09;;;;;;;18.83;12.20;;;0.50;99.90;;;;;;5051169;28;20025;-53
2023/01/02 02:41:12;;;;;;;16.45;12.23;;;0.60;99.90;;;;;;5051202;28;20017;-49
2023/01/02 02:43:43;;;;;;;18.23;11.85;;;0.60;99.90;;;;;;5060258;28;20107;-48
2023/01/02 02:46:36;;;;;;;21.00;13.32;;;0.60;99.90;;;;;;5071077;28;20123;-48
2023/01/02 02:49:31;;;;;;;17.33;10.57;;;0.70;99.90;;;;;;5071177;28;20029;-50
2023/01/02 02:52:04;;;;;;;20.17;11.05;;;0.70;99.90;;;;;;5070760;28;20048;-53
2023/01/02 02:54:39;;;;;;;;;;;0.70;99.90;;;;;;5070922;28;20028;-52
2023/01/02 02:57:06;;;;;;;16.75;11.20;;;0.70;99.90;;;;;;5070063;28;19908;-52
2023/01/02 02:59:35;;;;;;;21.70;10.50;;;0.60;99.90;;;;;;5051135;28;20056;-48
2023/01/02 03:02:02;;;;;;;14.98;10.05;;;0.60;99.90;;;;;;5050486;28;20376;-48
2023/01/02 03:04:28;;;;;;;18.75;10.73;;;0.60;99.90;;;;;;5051504;28;20111;-47
2023/01/02 03:07:06;;;;;;;14.30;9.38;;;0.60;99.90;;;;;;5053745;28;20151;-48
2023/01/02 03:10:16;;;;;;;17.33;9.55;;;0.60;99.90;;;;;;5053810;28;20080;-49
2023/01/02 03:13:02;;;;;;;14.73;9.55;;;0.60;99.90;;;;;;5059949;28;20028;-49
2023/01/02 03:15:57;;;;;;;16.20;10.20;;;0.60;99.90;;;;;;5074534;28;20459;-48
2023/01/02 03:18:54;;;;;;;13.98;10.07;;;0.60;99.90;;;;;;5071829;28;20496;-52
2023/01/02 03:21:35;;;;;;;14.05;9.38;;;0.50;99.90;;;;;;5074322;28;20012;-49
2023/01/02 03:24:07;;;;;;;15.10;9.02;;;0.50;99.90;;;;;;5065878;28;20037;-48
2023/01/02 03:26:35;;;;;;;9.82;8.27;;;0.40;99.90;;;;;;5054407;28;20369;-48
2023/01/02 03:29:09;;;;;;;13.75;9.00;;;0.30;99.90;;;;;;5054181;28;20035;-50
2023/01/02 03:31:38;;;;;;;11.73;8.98;;;0.40;99.90;;;;;;5054229;28;20021;-50
2023/01/02 03:34:10;;;;;;;19.38;9.73;;;0.40;99.90;;;;;;5054250;28;20029;-51
2023/01/02 03:36:38;;;;;;;11.75;8.48;;;0.50;99.90;;;;;;5054051;28;20537;-48
2023/01/02 03:39:13;;;;;;;21.45;11.88;;;0.50;99.90;;;;;;5064430;28;20040;-50
2023/01/02 03:41:47;;;;;;;13.63;9.32;;;0.50;99.90;;;;;;5074112;28;20027;-50
2023/01/02 03:44:15;;;;;;;16.08;8.77;;;0.50;99.90;;;;;;5074105;28;20078;-49
2023/01/02 03:46:49;;;;;;;11.52;9.48;;;0.40;99.90;;;;;;5074023;28;20367;-47
2023/01/02 03:49:31;;;;;;;12.50;8.25;;;0.40;99.90;;;;;;5074071;28;20384;-53
2023/01/02 03:51:56;;;;;;;11.43;8.75;;;0.40;99.90;;;;;;5074068;28;20028;-49
2023/01/02 03:54:22;;;;;;;11.75;8.98;;;0.40;99.90;;;;;;5058453;28;20036;-50
2023/01/02 03:56:56;;;;;;;11.18;7.35;;;0.40;99.90;;;;;;5053812;28;20025;-52
2023/01/02 04:00:04;;;;;;;14.65;8.80;;;0.40;99.90;;;;;;5053718;28;20032;-49
2023/01/02 04:02:36;;;;;;;10.55;8.48;;;0.40;99.90;;;;;;5053780;28;20017;-50
2023/01/02 04:05:18;;;;;;;14.05;8.48;;;0.50;99.90;;;;;;5053680;28;20029;-54
2023/01/02 04:07:58;;;;;;;16.27;8.25;;;0.50;99.90;;;;;;5053887;28;20017;-49
2023/01/02 04:10:26;;;;;;;8.15;7.20;;;0.50;99.90;;;;;;5062597;28;20361;-51
2023/01/02 04:12:55;;;;;;;14.05;8.23;;;0.50;99.90;;;;;;5073198;28;20028;-54
2023/01/02 04:15:27;;;;;;;15.80;7.90;;;0.40;99.90;;;;;;5073064;28;20024;-50
2023/01/02 04:17:58;;;;;;;12.63;7.75;;;0.40;99.90;;;;;;5073411;28;20368;-55
2023/01/02 04:20:29;;;;;;;9.75;7.88;;;0.40;99.90;;;;;;5073419;28;20019;-50
2023/01/02 04:23:24;;;;;;;15.20;7.03;;;0.40;99.90;;;;;;5073003;28;20024;-52
2023/01/02 04:25:57;;;;;;;10.45;7.35;;;0.40;99.90;;;;;;5072804;28;20064;-54
2023/01/02 04:28:27;;;;;;;10.10;8.05;;;0.40;99.90;;;;;;5051848;28;20033;-51
2023/01/02 04:31:17;;;;;;;11.32;7.05;;;0.40;99.90;;;;;;5053152;28;20036;-47
2023/01/02 04:33:47;;;;;;;8.93;8.02;;;0.40;99.90;;;;;;5053243;28;20427;-52
2023/01/02 04:36:14;;;;;;;14.00;8.65;;;0.50;99.90;;;;;;5053054;28;20079;-50
2023/01/02 04:38:44;;;;;;;9.40;7.97;;;0.40;99.90;;;;;;5052934;28;20032;-50
2023/01/02 04:41:16;;;;;;;12.52;7.82;;;0.40;99.90;;;;;;5053150;28;20025;-52
2023/01/02 04:43:41;;;;;;;15.18;7.05;;;0.50;99.90;;;;;;5052820;28;20025;-53
2023/01/02 04:46:07;;;;;;;13.55;8.10;;;0.50;99.90;;;;;;5052880;28;20446;-51
2023/01/02 04:48:33;;;;;;;13.18;7.22;;;0.40;99.90;;;;;;5052658;28;20040;-51
2023/01/02 04:50:58;;;;;;;13.02;6.45;;;0.40;99.90;;;;;;5051452;28;20029;-51
2023/01/02 04:53:24;;;;;;;8.77;7.07;;;0.30;99.90;;;;;;5051592;28;20375;-54
2023/01/02 04:55:56;;;;;;;8.05;6.88;;;0.40;99.90;;;;;;5052736;28;20021;-51
2023/01/02 04:58:22;;;;;;;8.88;7.07;;;0.30;99.90;;;;;;5059915;28;20058;-51
2023/01/02 05:00:47;;;;;;;10.93;6.10;;;0.40;99.90;;;;;;5072746;28;20028;-55
2023/01/02 05:03:13;;;;;;;11.40;6.30;;;0.40;99.90;;;;;;5063378;28;20542;-51
2023/01/02 05:05:38;;;;;;;13.73;7.25;;;0.40;99.90;;;;;;5052458;28;20033;-51
2023/01/02 05:08:04;;;;;;;15.98;7.25;;;0.40;99.90;;;;;;5052359;28;20029;-51
2023/01/02 05:10:30;;;;;;;9.95;7.22;;;0.40;99.90;;;;;;5052290;28;20044;-55
2023/01/02 05:12:58;;;;;;;11.15;6.80;;;0.30;99.90;;;;;;5052221;28;20028;-48
2023/01/02 05:15:24;;;;;;;11.88;7.85;;;0.30;99.90;;;;;;5052260;28;20031;-48
2023/01/02 05:17:50;;;;;;;11.25;8.65;;;0.30;99.90;;;;;;5070272;28;20025;-53
2023/01/02 05:20:16;;;;;;;9.68;6.47;;;0.30;99.90;;;;;;5072285;28;20031;-53
2023/01/02 05:25:32;;;;;;;10.77;7.10;;;0.30;99.90;;;;;;5052354;28;20035;-52
2023/01/02 05:27:57;;;;;;;12.10;7.93;;;0.20;99.90;;;;;;5051356;28;20075;-54
2023/01/02 05:30:23;;;;;;;11.05;7.15;;;0.30;99.90;;;;;;5052018;28;20028;-53
2023/01/02 05:32:49;;;;;;;11.38;7.20;;;0.20;99.90;;;;;;5052072;28;20078;-50
2023/01/02 05:35:15;;;;;;;8.82;7.03;;;0.20;99.90;;;;;;5051911;28;20055;-51
2023/01/02 05:37:41;;;;;;;13.48;7.85;;;0.30;99.90;;;;;;5064442;28;20082;-51
2023/01/02 05:40:07;;;;;;;12.70;7.22;;;0.30;99.90;;;;;;5071779;28;20024;-51
2023/01/02 05:42:32;;;;;;;13.60;7.63;;;0.30;99.90;;;;;;5071791;28;20029;-51
2023/01/02 05:44:58;;;;;;;9.43;6.97;;;0.30;99.90;;;;;;5071730;28;20025;-52
2023/01/02 05:47:24;;;;;;;10.02;7.97;;;0.30;99.90;;;;;;5071753;28;20145;-50
2023/01/02 05:49:49;;;;;;;10.30;7.47;;;0.30;99.90;;;;;;5071795;28;20100;-52
2023/01/02 05:52:15;;;;;;;11.90;7.50;;;0.30;99.90;;;;;;5060248;28;20446;-50
2023/01/02 05:54:41;;;;;;;10.02;6.85;;;0.30;99.90;;;;;;5051589;28;20111;-53
2023/01/02 05:57:06;;;;;;;9.93;7.47;;;0.20;99.90;;;;;;5051449;28;20475;-51
2023/01/02 05:59:32;;;;;;;11.55;7.85;;;0.10;99.90;;;;;;5051603;28;20029;-48
2023/01/02 06:01:58;;;;;;;8.30;7.10;;;0.10;99.90;;;;;;5050127;28;20108;-52
2023/01/02 06:04:23;;;;;;;15.18;8.43;;;0.10;99.90;;;;;;5051310;28;20029;-53
2023/01/02 06:06:50;;;;;;;14.18;8.07;;;0.10;99.90;;;;;;5064271;28;20024;-51
2023/01/02 06:09:16;;;;;;;13.38;7.88;;;0.20;99.90;;;;;;5070426;28;20056;-53
2023/01/02 06:11:43;;;;;;;11.02;6.88;;;0.20;99.90;;;;;;5071098;28;20039;-53
2023/01/02 06:14:09;;;;;;;15.75;6.93;;;0.20;99.90;;;;;;5071592;28;20131;-53
2023/01/02 06:16:36;;;;;;;12.25;7.40;;;0.30;99.90;;;;;;5060893;28;21083;-54
2023/01/02 06:19:02;;;;;;;9.23;7.07;;;0.20;99.90;;;;;;5051301;28;20583;-53
2023/01/02 06:21:28;;;;;;;8.52;6.53;;;0.20;99.90;;;;;;5051316;28;20029;-52
2023/01/02 06:23:56;;;;;;;12.05;7.07;;;0.20;99.90;;;;;;5063506;28;20031;-52
2023/01/02 06:26:22;;;;;;;7.75;6.70;;;0.20;99.90;;;;;;5071269;28;20033;-53
2023/01/02 06:28:51;;;;;;;8.32;7.40;;;0.20;99.90;;;;;;5071411;28;20415;-52
2023/01/02 06:31:18;;;;;;;9.68;6.85;;;0.20;99.90;;;;;;5071065;28;20125;-53
2023/01/02 06:33:44;;;;;;;11.20;7.57;;;0.10;99.90;;;;;;5071388;28;20169;-51
2023/01/02 06:36:13;;;;;;;14.07;7.13;;;0.10;99.90;;;;;;5070896;28;20076;-52
2023/01/02 06:38:39;;;;;;;10.93;7.68;;;0.10;99.90;;;;;;5070822;28;20115;-51
2023/01/02 06:41:06;;;;;;;11.60;8.45;;;0.10;99.90;;;;;;5074680;28;20108;-55
2023/01/02 06:43:32;;;;;;;12.63;8.75;;;0.10;99.90;;;;;;5073861;28;20055;-55
2023/01/02 06:46:00;;;;;;;18.65;8.07;;;0.10;99.90;;;;;;5075111;28;20108;-53
2023/01/02 06:48:26;;;;;;;16.45;8.13;;;0.10;99.90;;;;;;5073691;28;20087;-53
2023/01/02 06:50:52;;;;;;;14.95;8.48;;;0.10;99.90;;;;;;5074854;28;20028;-51
2023/01/02 06:53:18;;;;;;;13.75;8.85;;;0.10;99.90;;;;;;5074170;28;20020;-51
2023/01/02 06:55:55;;;;;;;14.80;9.07;;;0.10;99.90;;;;;;5074747;28;20103;-55
2023/01/02 06:58:21;;;;;;;13.07;8.35;;;0.20;99.90;;;;;;5074349;28;20020;-52
2023/01/02 07:00:48;;;;;;;11.75;9.27;;;0.10;99.90;;;;;;5074576;28;20016;-54
2023/01/02 07:03:14;;;;;;;13.63;9.07;;;0.10;99.90;;;;;;5074642;28;20027;-56
2023/01/02 07:05:40;;;;;;;22.52;9.65;;;0.10;99.90;;;;;;5074328;28;20033;-51
2023/01/02 07:08:07;;;;;;;21.85;11.68;;;0.10;99.90;;;;;;5073764;28;20043;-52
2023/01/02 07:10:32;;;;;;;20.80;11.98;;;0.10;99.90;;;;;;5074222;28;20128;-53
2023/01/02 07:12:58;;;;;;;18.88;11.02;;;0.10;99.90;;;;;;5074444;28;20458;-53
2023/01/02 07:15:23;;;;;;;31.63;18.40;;;0.10;99.90;;;;;;5072479;28;20375;-51
2023/01/02 07:17:49;;;;;;;31.58;17.02;;;0.00;99.90;;;;;;5074179;28;20120;-54
2023/01/02 07:20:15;;;;;;;27.98;14.77;;;0.10;99.90;;;;;;5074112;28;20028;-55
2023/01/02 07:22:41;;;;;;;26.40;15.88;;;0.10;99.90;;;;;;5073503;28;20078;-53
2023/01/02 07:25:07;;;;;;;31.08;17.65;;;0.20;99.90;;;;;;5074089;28;20024;-52
2023/01/02 07:27:33;;;;;;;36.80;18.17;;;0.20;99.90;;;;;;5074181;28;20048;-54
2023/01/02 07:29:59;;;;;;;43.65;19.83;;;0.30;99.90;;;;;;5074105;28;20106;-50
2023/01/02 07:32:24;;;;;;;43.03;20.70;;;0.30;99.90;;;;;;5073739;28;20017;-53
2023/01/02 07:34:50;;;;;;;43.08;23.52;;;0.30;99.90;;;;;;5073994;28;20056;-53
2023/01/02 07:37:16;;;;;;;52.10;27.13;;;0.40;99.90;;;;;;5073222;28;20159;-52
2023/01/02 07:39:42;;;;;;;39.65;21.63;;;0.40;99.90;;;;;;5074039;28;20452;-52
2023/01/02 07:42:08;;;;;;;55.80;31.05;;;0.40;99.90;;;;;;5073833;28;20048;-52
2023/01/02 07:44:33;;;;;;;65.43;30.95;;;0.40;99.90;;;;;;5073877;28;20520;-52
2023/01/02 07:46:59;;;;;;;57.05;26.40;;;0.40;99.90;;;;;;5073838;28;20479;-52
2023/01/02 07:49:25;;;;;;;49.13;24.38;;;0.50;99.90;;;;;;5073115;28;20032;-51
2023/01/02 07:51:50;;;;;;;40.47;23.40;;;0.50;99.90;;;;;;5072622;28;20021;-50
2023/01/02 07:54:16;;;;;;;42.72;23.25;;;0.60;99.90;;;;;;5073680;28;20036;-51
2023/01/02 07:56:42;;;;;;;38.08;23.13;;;0.60;99.90;;;;;;5073426;28;20492;-56
2023/01/02 07:59:07;;;;;;;47.40;25.88;;;0.70;99.90;;;;;;5073592;28;20379;-52
2023/01/02 08:01:33;;;;;;;40.13;27.00;;;0.80;99.90;;;;;;5062161;28;20032;-51
2023/01/02 08:03:59;;;;;;;35.60;21.48;;;0.90;99.90;;;;;;5053348;28;20523;-54
2023/01/02 08:06:24;;;;;;;38.67;20.35;;;1.00;99.90;;;;;;5051840;28;20445;-51
2023/01/02 08:08:50;;;;;;;32.45;21.48;;;1.00;99.90;;;;;;5068510;28;20060;-51
2023/01/02 08:11:19;;;;;;;31.88;20.67;;;1.00;99.90;;;;;;5072285;28;20441;-50
2023/01/02 08:13:44;;;;;;;25.65;18.58;;;1.10;99.90;;;;;;5072632;28;20032;-50
2023/01/02 08:16:16;;;;;;;28.13;19.10;;;1.20;99.90;;;;;;5072802;28;20086;-49
2023/01/02 08:18:42;;;;;;;25.98;17.85;;;1.40;99.90;;;;;;5072956;28;20044;-50
2023/01/02 08:21:08;;;;;;;27.42;17.95;;;1.50;99.90;;;;;;5070524;28;20024;-50
2023/01/02 08:23:34;;;;;;;24.15;16.40;;;1.60;99.90;;;;;;5052143;28;20472;-55
2023/01/02 08:26:03;;;;;;;22.95;17.65;;;1.70;99.90;;;;;;5064869;28;20044;-51
2023/01/02 08:28:29;;;;;;;25.75;18.42;;;1.80;99.90;;;;;;5072423;28;20115;-52
2023/01/02 08:30:55;;;;;;;23.48;18.50;;;1.80;99.90;;;;;;5072849;28;20020;-51
2023/01/02 08:33:21;;;;;;;20.85;17.38;;;1.90;99.90;;;;;;5072772;28;20025;-53
2023/01/02 08:35:46;;;;;;;20.67;16.83;;;1.90;99.90;;;;;;5072945;28;20100;-49
2023/01/02 08:38:12;;;;;;;20.60;16.55;;;1.90;99.90;;;;;;5072349;28;20107;-51
2023/01/02 08:40:38;;;;;;;18.77;15.65;;;1.90;99.90;;;;;;5072625;28;20029;-52
2023/01/02 08:43:06;;;;;;;23.27;17.15;;;1.90;99.90;;;;;;5072427;28;20470;-48
2023/01/02 08:45:32;;;;;;;20.48;15.60;;;1.90;99.90;;;;;;5072751;28;20024;-53
2023/01/02 08:47:57;;;;;;;20.13;16.73;;;1.90;99.90;;;;;;5072503;28;20529;-53
2023/01/02 08:50:23;;;;;;;20.73;16.35;;;1.90;99.90;;;;;;5072465;28;20032;-53
2023/01/02 08:52:49;;;;;;;19.30;15.93;;;2.00;99.90;;;;;;5071900;28;20036;-49
2023/01/02 08:55:14;;;;;;;20.35;16.67;;;2.10;99.90;;;;;;5072487;28;20387;-53
2023/01/02 08:57:40;;;;;;;23.90;18.02;;;2.20;99.90;;;;;;5072072;28;20025;-51
2023/01/02 09:00:06;;;;;;;20.75;16.55;;;2.30;99.90;;;;;;5071804;28;20103;-48
2023/01/02 09:02:32;;;;;;;20.30;15.73;;;2.30;99.90;;;;;;5070613;28;20028;-54
2023/01/02 09:04:58;;;;;;;22.77;17.25;;;2.30;99.90;;;;;;5072303;28;20032;-55
2023/01/02 09:07:24;;;;;;;20.42;16.20;;;2.40;99.90;;;;;;5072257;28;20028;-53
2023/01/02 09:09:50;;;;;;;19.42;15.48;;;2.50;99.90;;;;;;5072078;28;20059;-52
2023/01/02 09:12:15;;;;;;;19.75;15.88;;;2.60;99.90;;;;;;5070865;28;20028;-50
2023/01/02 09:14:41;;;;;;;19.38;15.43;;;2.70;99.90;;;;;;5057297;28;20033;-52
2023/01/02 09:17:07;;;;;;;16.55;14.52;;;2.70;99.90;;;;;;5059055;28;20032;-49
2023/01/02 09:19:32;;;;;;;21.40;16.02;;;2.70;99.90;;;;;;5071918;28;20020;-50
2023/01/02 09:22:00;;;;;;;20.42;16.38;;;2.80;99.90;;;;;;5072067;28;20020;-50
2023/01/02 09:24:26;;;;;;;20.10;15.60;;;2.80;99.90;;;;;;5071998;28;20020;-48
2023/01/02 09:26:52;;;;;;;26.38;18.75;;;2.90;99.90;;;;;;5072065;28;20028;-48
2023/01/02 09:29:18;;;;;;;22.30;18.30;;;3.10;99.90;;;;;;5071218;28;20107;-49
2023/01/02 09:31:44;;;;;;;19.08;16.85;;;3.30;99.90;;;;;;5072026;28;20627;-52
2023/01/02 09:34:10;;;;;;;15.57;12.73;;;3.60;99.90;;;;;;5071325;28;20103;-50
2023/01/02 09:36:36;;;;;;;12.98;10.52;;;4.80;99.90;;;;;;5071631;28;20396;-48
2023/01/02 09:39:03;;;;;;;29.77;12.68;;;6.40;99.90;;;;;;5071704;28;20025;-48
2023/01/02 09:41:52;;;;;;;21.00;14.73;;;8.30;99.90;;;;;;5071669;28;20028;-51
2023/01/02 09:44:21;;;;;;;26.95;11.07;;;9.50;99.90;;;;;;5070903;28;20109;-47
2023/01/02 09:46:55;;;;;;;9.60;7.50;;;10.60;99.90;;;;;;5071676;28;20082;-47
2023/01/02 09:49:23;;;;;;;;;;;11.20;96.00;;;;;;5071991;28;20033;-49
2023/01/02 09:51:49;;;;;;;8.82;7.03;;;11.60;96.10;;;;;;5071174;28;19997;-48
2023/01/02 09:54:21;;;;;;;9.40;7.43;;;12.00;94.20;;;;;;5071302;28;20117;-47
2023/01/02 09:56:51;;;;;;;7.75;6.63;;;12.60;93.10;;;;;;5071211;28;20027;-48
2023/01/02 09:59:32;;;;;;;7.07;6.43;;;12.80;92.10;;;;;;5070900;28;20025;-51
2023/01/02 10:02:16;;;;;;;45.13;10.77;;;12.80;90.40;;;;;;5071325;28;20632;-50
2023/01/02 10:04:54;;;;;;;7.90;7.03;;;12.50;90.60;;;;;;5064320;28;20021;-51
2023/01/02 10:07:27;;;;;;;15.68;7.93;;;12.70;90.70;;;;;;5062492;28;20028;-52
2023/01/02 10:10:15;;;;;;;7.78;6.97;;;12.80;92.60;;;;;;5070718;28;20046;-48
2023/01/02 10:12:56;;;;;;;7.53;6.82;;;13.10;89.10;;;;;;5070875;28;20492;-50
2023/01/02 10:15:27;;;;;;;7.20;6.43;;;13.80;90.00;;;;;;5071172;28;20381;-51
2023/01/02 10:17:58;;;;;;;10.95;6.70;;;13.80;86.30;;;;;;5071201;28;20025;-52
2023/01/02 10:20:32;;;;;;;6.53;5.93;;;14.50;84.70;;;;;;5070242;28;20108;-53
2023/01/02 10:23:04;;;;;;;7.38;6.57;;;14.50;84.50;;;;;;5071286;28;20043;-49
2023/01/02 10:25:37;;;;;;;7.20;6.47;;;14.70;82.40;;;;;;5071108;28;20028;-54
2023/01/02 10:28:15;;;;;;;10.52;8.27;;;14.80;81.70;;;;;;5071269;28;20061;-51
2023/01/02 10:30:51;;;;;;;8.23;7.35;;;15.70;78.60;;;;;;5071115;28;20127;-52
2023/01/02 10:33:26;;;;;;;7.22;6.53;;;15.50;77.70;;;;;;5070272;28;20017;-54
2023/01/02 10:35:59;;;;;;;8.55;7.35;;;15.40;76.80;;;;;;5070828;28;20036;-50
2023/01/02 10:38:34;;;;;;;9.00;7.88;;;15.90;76.40;;;;;;5071219;28;20033;-50
2023/01/02 10:41:00;;;;;;;12.43;10.20;;;16.30;73.70;;;;;;5070932;28;20029;-53
2023/01/02 10:43:26;;;;;;;6.70;6.00;;;16.40;73.40;;;;;;5070733;28;20465;-48
2023/01/02 10:45:52;;;;;;;5.43;4.93;;;16.60;71.80;;;;;;5071002;28;20020;-49
2023/01/02 10:48:22;;;;;;;8.13;7.25;;;16.00;71.60;;;;;;5070321;28;20031;-55
2023/01/02 10:50:52;;;;;;;6.93;5.80;;;15.80;73.20;;;;;;5071052;28;20510;-50
2023/01/02 10:53:19;;;;;;;9.73;8.48;;;16.40;71.70;;;;;;5070542;28;20028;-51
2023/01/02 10:55:45;;;;;;;9.95;7.72;;;16.70;70.60;;;;;;5070996;28;20039;-53
2023/01/02 10:58:20;;;;;;;7.90;7.10;;;16.90;71.20;;;;;;5070904;28;20640;-52
2023/01/02 11:00:47;;;;;;;7.30;6.38;;;17.20;69.50;;;;;;5070535;28;20723;-52
2023/01/02 11:03:31;;;;;;;6.20;5.45;;;17.30;67.80;;;;;;5070453;28;20106;-54
2023/01/02 11:05:57;;;;;;;7.97;6.07;;;17.30;67.20;;;;;;5070959;28;20043;-51
2023/01/02 11:08:36;;;;;;;6.80;6.13;;;17.30;67.50;;;;;;5070696;28;20024;-52
2023/01/02 11:11:16;;;;;;;7.10;6.40;;;17.60;67.60;;;;;;5070548;28;20045;-49
2023/01/02 11:13:56;;;;;;;6.97;6.28;;;17.30;67.20;;;;;;5070812;28;20029;-52
2023/01/02 11:16:23;;;;;;;7.50;6.75;;;16.90;67.40;;;;;;5048833;28;20036;-53
2023/01/02 11:18:54;;;;;;;6.93;6.22;;;16.70;68.40;;;;;;5041508;28;20159;-53
2023/01/02 11:21:35;;;;;;;7.30;6.55;;;16.90;66.50;;;;;;5039159;28;20026;-53
2023/01/02 11:24:04;;;;;;;15.63;13.68;;;16.90;65.60;;;;;;5038651;28;20017;-51
2023/01/02 11:26:32;;;;;;;10.85;8.40;;;17.00;65.90;;;;;;5042447;28;20045;-52
2023/01/02 11:29:16;;;;;;;8.80;7.25;;;16.80;65.90;;;;;;5044975;28;20040;-49
2023/01/02 11:31:50;;;;;;;9.57;7.43;;;16.30;67.10;;;;;;5043122;28;20377;-48
2023/01/02 11:34:26;;;;;;;7.20;6.60;;;15.80;67.80;;;;;;5043276;28;20033;-51
2023/01/02 11:37:10;;;;;;;6.63;5.88;;;15.50;67.90;;;;;;5042496;28;20031;-48
2023/01/02 11:39:36;;;;;;;6.47;5.88;;;15.90;68.40;;;;;;5043038;28;20120;-53
2023/01/02 11:45:08;;;;;;;14.38;7.85;;;15.50;66.60;;;;;;5042592;28;20043;-52
2023/01/02 11:47:45;;;;;;;9.23;7.97;;;15.70;66.20;;;;;;5043437;28;20029;-49
2023/01/02 11:50:26;;;;;;;16.08;10.38;;;15.90;65.90;;;;;;5042850;28;20564;-48
2023/01/02 11:52:57;;;;;;;11.55;7.95;;;15.90;66.60;;;;;;5043367;28;20358;-49
2023/01/02 11:55:52;;;;;;;19.02;8.95;;;16.60;64.60;;;;;;5042506;28;20346;-52
2023/01/02 11:58:38;;;;;;;59.90;23.02;;;17.10;63.50;;;;;;5042607;28;20500;-51
2023/01/02 12:01:34;;;;;;;13.02;8.80;;;17.60;62.10;;;;;;5042495;28;20095;-50
2023/01/02 12:04:00;;;;;;;16.08;10.68;;;17.60;62.30;;;;;;5043123;28;20468;-51
2023/01/02 12:07:07;;;;;;;20.13;11.00;;;16.90;62.30;;;;;;5041870;28;20055;-53
2023/01/02 12:09:51;;;;;;;15.55;11.30;;;16.40;63.10;;;;;;5060134;28;20437;-50
2023/01/02 12:12:32;;;;;;;26.77;14.25;;;16.00;64.40;;;;;;5044870;28;20053;-50
2023/01/02 12:15:17;;;;;;;14.73;8.98;;;15.40;65.60;;;;;;5052151;28;20025;-52
2023/01/02 12:18:09;;;;;;;7.95;7.20;;;14.50;68.20;;;;;;5053346;28;20040;-50
2023/01/02 12:21:00;;;;;;;8.70;7.15;;;13.40;71.50;;;;;;5052761;28;20029;-49
2023/01/02 12:23:44;;;;;;;8.43;7.63;;;12.60;75.50;;;;;;5049255;28;20044;-51
2023/01/02 12:26:12;;;;;;;8.88;7.97;;;12.80;75.90;;;;;;5065518;28;20056;-50
2023/01/02 12:28:59;;;;;;;7.93;7.13;;;12.90;75.20;;;;;;5070484;28;21281;-52
2023/01/02 12:32:09;;;;;;;8.13;7.30;;;13.60;73.20;;;;;;5072936;28;20029;-50
2023/01/02 12:34:41;;;;;;;9.40;7.72;;;14.50;70.50;;;;;;5072806;28;20375;-51
2023/01/02 12:37:26;;;;;;;7.65;6.95;;;14.70;70.40;;;;;;5072746;28;20085;-51
2023/01/02 12:39:58;;;;;;;8.70;7.80;;;14.30;71.20;;;;;;5072825;28;20074;-52
2023/01/02 12:42:41;;;;;;;9.45;8.52;;;13.60;72.00;;;;;;5071969;28;20107;-51
2023/01/02 12:45:51;;;;;;;11.05;9.50;;;13.30;73.00;;;;;;5072158;28;20111;-47
2023/01/02 12:48:44;;;;;;;9.98;8.95;;;12.60;75.30;;;;;;5071979;28;20100;-52
2023/01/02 12:51:14;;;;;;;10.98;8.20;;;12.00;78.20;;;;;;5066983;28;20031;-49
2023/01/02 12:54:12;;;;;;;8.52;7.75;;;11.40;81.60;;;;;;5051203;28;20523;-50
2023/01/02 12:56:41;;;;;;;11.10;8.73;;;11.00;84.00;;;;;;5056156;28;20037;-49
2023/01/02 12:59:18;;;;;;;8.98;7.93;;;11.60;84.20;;;;;;5052552;28;20108;-50
2023/01/02 13:02:15;;;;;;;12.05;9.73;;;11.80;81.80;;;;;;5059283;28;20510;-50
2023/01/02 13:04:47;;;;;;;9.40;8.40;;;11.90;81.40;;;;;;5070686;28;20032;-51
2023/01/02 13:07:21;;;;;;;11.27;7.82;;;11.90;82.00;;;;;;5072402;28;20032;-50
2023/01/02 13:09:49;;;;;;;8.63;7.82;;;11.70;83.60;;;;;;5072201;28;20090;-48